^^
Station Historical Data
 
Daily Summary for August 18, 2017 Units:  English    Metric   Both
« Previous Day
Next Day »
Daily Weekly Monthly Yearly Custom
  Current: High: Low: Average:
Temperature: 64.4 °F 64.4 °F 60.8 °F 62.2 °F
Dew Point: 57.7 °F 60.5 °F 56.7 °F 59.2 °F
Humidity: 79% 96% 79% 90%
Wind Speed: 8.1mph 16.1mph 3.5mph 8.1mph
Wind Gust: 8.1mph 16.1mph - -
WindWest - - West
Pressure: 29.76 in 29.76 in 29.56 in -
Precipitation: 0.00 in      
Historical Graphs
 
 
Tabular Data for August 18, 2017
Time Temperature Dew Point Pressure Wind Wind Speed Wind Gust Humidity Rainfall Rate (Hourly) solar Conditions
00:02 60.8 °F 59.7 °F 29.57 in West 8.1 mph 8.1 mph 96% 0.00 in 0.0 W/m2 RA
00:07 60.8 °F 59.7 °F 29.56 in WSW 8.1 mph 8.1 mph 96% 0.00 in 0.0 W/m2 RA
00:12 60.8 °F 59.7 °F 29.57 in West 6.9 mph 6.9 mph 96% 0.00 in 0.0 W/m2 OVC
00:17 60.8 °F 59.7 °F 29.56 in West 6.9 mph 6.9 mph 96% 0.00 in 0.0 W/m2 OVC
00:22 60.8 °F 59.7 °F 29.56 in WSW 5.8 mph 5.8 mph 96% 0.00 in 0.0 W/m2 OVC
00:27 60.8 °F 59.7 °F 29.56 in West 4.6 mph 4.6 mph 96% 0.00 in 0.0 W/m2 OVC
00:32 60.8 °F 59.7 °F 29.56 in West 4.6 mph 4.6 mph 96% 0.00 in 0.0 W/m2 OVC
00:37 60.8 °F 59.7 °F 29.56 in WSW 3.5 mph 3.5 mph 96% 0.00 in 0.0 W/m2 OVC
00:42 60.8 °F 59.7 °F 29.56 in West 3.5 mph 3.5 mph 96% 0.00 in 0.0 W/m2 OVC
00:47 60.8 °F 59.7 °F 29.56 in West 5.8 mph 5.8 mph 96% 0.00 in 0.0 W/m2 OVC
00:52 60.8 °F 59.7 °F 29.56 in West 5.8 mph 5.8 mph 96% 0.00 in 0.0 W/m2 OVC
00:57 60.8 °F 59.7 °F 29.57 in West 6.9 mph 6.9 mph 96% 0.00 in 0.0 W/m2 OVC
01:02 60.8 °F 59.7 °F 29.57 in West 6.9 mph 6.9 mph 96% 0.00 in 0.0 W/m2 OVC
01:07 60.8 °F 59.7 °F 29.57 in WSW 6.9 mph 6.9 mph 96% 0.00 in 0.0 W/m2 OVC
01:12 60.8 °F 59.7 °F 29.57 in West 5.8 mph 5.8 mph 96% 0.00 in 0.0 W/m2 OVC
01:17 60.8 °F 59.7 °F 29.57 in West 5.8 mph 5.8 mph 96% 0.00 in 0.0 W/m2 OVC
01:22 60.8 °F 59.7 °F 29.57 in SW 4.6 mph 4.6 mph 96% 0.00 in 0.0 W/m2 OVC
01:27 60.8 °F 59.7 °F 29.57 in West 4.6 mph 4.6 mph 96% 0.00 in 0.0 W/m2 OVC
01:32 60.8 °F 59.7 °F 29.57 in West 4.6 mph 4.6 mph 96% 0.00 in 0.0 W/m2 OVC
01:37 60.8 °F 59.7 °F 29.57 in West 8.1 mph 8.1 mph 96% 0.00 in 0.0 W/m2 OVC
01:42 60.8 °F 59.7 °F 29.57 in West 8.1 mph 8.1 mph 96% 0.00 in 0.0 W/m2 OVC
01:47 60.8 °F 59.7 °F 29.57 in West 9.2 mph 9.2 mph 96% 0.00 in 0.0 W/m2 OVC
01:52 60.8 °F 59.4 °F 29.58 in WNW 9.2 mph 9.2 mph 95% 0.00 in 0.0 W/m2 OVC
01:57 60.8 °F 59.4 °F 29.58 in West 9.2 mph 9.2 mph 95% 0.00 in 0.0 W/m2 OVC
02:02 60.8 °F 59.4 °F 29.58 in West 8.1 mph 8.1 mph 95% 0.00 in 0.0 W/m2 OVC
02:07 60.8 °F 59.4 °F 29.58 in WNW 8.1 mph 8.1 mph 95% 0.00 in 0.0 W/m2 OVC
02:12 60.8 °F 59.4 °F 29.58 in West 11.5 mph 11.5 mph 95% 0.00 in 0.0 W/m2 OVC
02:17 60.8 °F 58.8 °F 29.58 in WSW 11.5 mph 11.5 mph 93% 0.00 in 0.0 W/m2 OVC
02:22 60.8 °F 58.8 °F 29.58 in WNW 8.1 mph 8.1 mph 93% 0.00 in 0.0 W/m2 OVC
02:27 60.8 °F 58.8 °F 29.58 in WNW 9.2 mph 9.2 mph 93% 0.00 in 0.0 W/m2 OVC
02:32 60.8 °F 58.8 °F 29.58 in WNW 9.2 mph 9.2 mph 93% 0.00 in 0.0 W/m2 OVC
02:37 60.8 °F 58.8 °F 29.58 in WNW 9.2 mph 9.2 mph 93% 0.00 in 0.0 W/m2 OVC
02:42 60.8 °F 58.8 °F 29.58 in West 10.4 mph 10.4 mph 93% 0.00 in 0.0 W/m2 OVC
02:47 60.8 °F 58.8 °F 29.58 in West 10.4 mph 10.4 mph 93% 0.00 in 0.0 W/m2 OVC
02:52 62.6 °F 60.5 °F 29.59 in WNW 9.2 mph 9.2 mph 93% 0.00 in 0.0 W/m2 OVC
02:57 62.6 °F 60.5 °F 29.59 in WNW 9.2 mph 9.2 mph 93% 0.00 in 0.0 W/m2 OVC
03:02 62.6 °F 60.5 °F 29.59 in WNW 9.2 mph 9.2 mph 93% 0.00 in 0.0 W/m2 BKN
03:07 62.6 °F 60.5 °F 29.59 in West 9.2 mph 9.2 mph 93% 0.00 in 0.0 W/m2 BKN
03:12 62.6 °F 60.5 °F 29.59 in WSW 9.2 mph 9.2 mph 93% 0.00 in 0.0 W/m2 BKN
03:17 62.6 °F 60.5 °F 29.59 in SW 9.2 mph 9.2 mph 93% 0.00 in 0.0 W/m2 BKN
03:22 62.6 °F 60.5 °F 29.59 in WSW 5.8 mph 5.8 mph 93% 0.00 in 0.0 W/m2 BKN
03:27 62.6 °F 60.5 °F 29.59 in WSW 5.8 mph 5.8 mph 93% 0.00 in 0.0 W/m2 BKN
03:32 62.6 °F 60.5 °F 29.60 in West 8.1 mph 8.1 mph 93% 0.00 in 0.0 W/m2 BKN
03:37 62.6 °F 60.5 °F 29.59 in West 8.1 mph 8.1 mph 93% 0.00 in 0.0 W/m2 BKN
03:42 62.6 °F 60.5 °F 29.60 in West 8.1 mph 8.1 mph 93% 0.00 in 0.0 W/m2 BKN
03:47 62.6 °F 60.5 °F 29.60 in West 8.1 mph 8.1 mph 93% 0.00 in 0.0 W/m2 BKN
03:52 62.6 °F 60.5 °F 29.60 in WNW 8.1 mph 8.1 mph 93% 0.00 in 0.0 W/m2 BKN
03:57 62.6 °F 60.5 °F 29.60 in WNW 8.1 mph 8.1 mph 93% 0.00 in 0.0 W/m2 BKN
04:02 62.6 °F 60.5 °F 29.60 in West 8.1 mph 8.1 mph 93% 0.00 in 0.0 W/m2 OVC
04:07 62.6 °F 60.5 °F 29.60 in WNW 5.8 mph 5.8 mph 93% 0.00 in 0.0 W/m2 OVC
04:12 60.8 °F 58.8 °F 29.60 in WNW 6.9 mph 6.9 mph 93% 0.00 in 0.0 W/m2 OVC
04:17 60.8 °F 58.8 °F 29.60 in WNW 6.9 mph 6.9 mph 93% 0.00 in 0.0 W/m2 OVC
04:22 60.8 °F 58.8 °F 29.61 in West 5.8 mph 5.8 mph 93% 0.00 in 0.0 W/m2 OVC
04:27 60.8 °F 59.4 °F 29.61 in West 9.2 mph 9.2 mph 95% 0.00 in 0.0 W/m2 OVC
04:32 60.8 °F 59.4 °F 29.61 in WSW 9.2 mph 9.2 mph 95% 0.00 in 0.0 W/m2 OVC
04:37 60.8 °F 59.4 °F 29.61 in WSW 6.9 mph 6.9 mph 95% 0.00 in 0.0 W/m2 OVC
04:42 60.8 °F 59.4 °F 29.61 in WSW 5.8 mph 5.8 mph 95% 0.00 in 0.0 W/m2 OVC
04:47 60.8 °F 59.4 °F 29.61 in West 5.8 mph 5.8 mph 95% 0.00 in 0.0 W/m2 OVC
04:52 60.8 °F 59.4 °F 29.62 in WNW 8.1 mph 8.1 mph 95% 0.00 in 0.0 W/m2 OVC
04:57 60.8 °F 59.4 °F 29.62 in WNW 8.1 mph 8.1 mph 95% 0.00 in 0.0 W/m2 OVC
05:02 60.8 °F 59.4 °F 29.62 in West 11.5 mph 11.5 mph 95% 0.00 in 0.0 W/m2 OVC
05:07 60.8 °F 59.4 °F 29.62 in West 11.5 mph 11.5 mph 95% 0.00 in 0.0 W/m2 OVC
05:12 60.8 °F 59.4 °F 29.62 in West 10.4 mph 10.4 mph 95% 0.00 in 0.0 W/m2 OVC
05:17 60.8 °F 59.4 °F 29.64 in West 10.4 mph 10.4 mph 95% 0.00 in 0.0 W/m2 OVC
05:22 60.8 °F 59.4 °F 29.64 in WSW 9.2 mph 9.2 mph 95% 0.00 in 0.0 W/m2 OVC
05:27 60.8 °F 59.4 °F 29.64 in WSW 9.2 mph 9.2 mph 95% 0.00 in 0.0 W/m2 OVC
05:32 60.8 °F 59.4 °F 29.64 in West 6.9 mph 6.9 mph 95% 0.00 in 0.0 W/m2 OVC
05:37 60.8 °F 59.4 °F 29.65 in West 6.9 mph 6.9 mph 95% 0.00 in 0.0 W/m2 OVC
05:42 60.8 °F 59.4 °F 29.65 in West 4.6 mph 4.6 mph 95% 0.00 in 0.0 W/m2 OVC
05:47 60.8 °F 59.4 °F 29.64 in West 8.1 mph 8.1 mph 95% 0.00 in 0.0 W/m2 OVC
05:52 60.8 °F 58.8 °F 29.65 in West 8.1 mph 8.1 mph 93% 0.00 in 146.1 W/m2 OVC
05:57 60.8 °F 58.8 °F 29.65 in West 8.1 mph 8.1 mph 93% 0.00 in 180.5 W/m2 OVC
06:02 60.8 °F 58.8 °F 29.65 in WNW 8.1 mph 8.1 mph 93% 0.00 in 196.6 W/m2 OVC
06:07 60.8 °F 58.8 °F 29.65 in WNW 6.9 mph 6.9 mph 93% 0.00 in 222.9 W/m2 OVC
06:12 60.8 °F 58.8 °F 29.65 in West 6.9 mph 6.9 mph 93% 0.00 in 234.0 W/m2 OVC
06:17 60.8 °F 58.8 °F 29.65 in West 9.2 mph 9.2 mph 93% 0.00 in 240.1 W/m2 OVC
06:22 60.8 °F 58.8 °F 29.64 in West 9.2 mph 9.2 mph 93% 0.00 in 248.2 W/m2 OVC
06:27 60.8 °F 58.8 °F 29.65 in West 9.2 mph 9.2 mph 93% 0.00 in 260.3 W/m2 OVC
06:28 60.8 °F 58.8 °F 29.65 in West 5.8 mph 5.8 mph 93% 0.00 in 260.3 W/m2 OVC
06:33 60.8 °F 58.8 °F 29.65 in WSW 4.6 mph 4.6 mph 93% 0.00 in 269.4 W/m2 OVC
06:38 60.8 °F 58.8 °F 29.65 in West 5.8 mph 5.8 mph 93% 0.00 in 269.4 W/m2 OVC
06:43 60.8 °F 58.8 °F 29.65 in West 8.1 mph 8.1 mph 93% 0.00 in 280.5 W/m2 OVC
06:49 60.8 °F 58.8 °F 29.66 in West 8.1 mph 8.1 mph 93% 0.00 in 273.4 W/m2 OVC
06:54 62.6 °F 59.9 °F 29.66 in WNW 8.1 mph 8.1 mph 91% 0.00 in 284.5 W/m2 OVC
06:59 62.6 °F 59.9 °F 29.66 in NW 8.1 mph 8.1 mph 91% 0.00 in 124.0 W/m2 OVC
07:04 62.6 °F 59.9 °F 29.66 in WNW 8.1 mph 8.1 mph 91% 0.00 in 138.0 W/m2 OVC
07:09 62.6 °F 59.9 °F 29.66 in West 9.2 mph 9.2 mph 91% 0.00 in 152.0 W/m2 OVC
07:14 62.6 °F 59.6 °F 29.66 in WSW 9.2 mph 9.2 mph 90% 0.00 in 167.0 W/m2 OVC
07:16 62.6 °F 59.6 °F 29.66 in West 9.2 mph 9.2 mph 90% 0.00 in 319.9 W/m2 OVC
07:21 62.6 °F 59.0 °F 29.67 in West 8.1 mph 8.1 mph 88% 0.00 in 322.9 W/m2 OVC
07:26 62.6 °F 58.4 °F 29.67 in West 8.1 mph 8.1 mph 86% 0.00 in 327.9 W/m2 OVC
07:31 62.6 °F 58.4 °F 29.67 in West 8.1 mph 8.1 mph 86% 0.00 in 333.0 W/m2 OVC
07:36 62.6 °F 58.0 °F 29.68 in WNW 15.0 mph 15.0 mph 85% 0.00 in 334.0 W/m2 OVC
07:41 62.6 °F 58.0 °F 29.67 in WSW 15.0 mph 15.0 mph 85% 0.00 in 341.1 W/m2 OVC
07:46 62.6 °F 58.4 °F 29.67 in SW 8.1 mph 8.1 mph 86% 0.00 in 341.1 W/m2 OVC
07:51 64.4 °F 59.8 °F 29.67 in NW 9.2 mph 9.2 mph 85% 0.00 in 421.9 W/m2 OVC
07:56 64.4 °F 59.1 °F 29.68 in WNW 9.2 mph 9.2 mph 83% 0.00 in 358.2 W/m2 OVC
08:01 64.4 °F 59.1 °F 29.67 in WNW 13.8 mph 13.8 mph 83% 0.00 in 407.7 W/m2 SCT
08:06 64.4 °F 58.4 °F 29.68 in NW 13.8 mph 13.8 mph 81% 0.00 in 407.7 W/m2 SCT
08:11 64.4 °F 58.4 °F 29.68 in NW 11.5 mph 11.5 mph 81% 0.00 in 553.2 W/m2 SCT
08:16 64.4 °F 58.4 °F 29.68 in West 10.4 mph 10.4 mph 81% 0.00 in 586.5 W/m2 SCT
08:21 64.4 °F 58.4 °F 29.69 in WNW 10.4 mph 10.4 mph 81% 0.00 in 571.3 W/m2 SCT
08:26 64.4 °F 58.4 °F 29.69 in NW 16.1 mph 16.1 mph 81% 0.00 in 482.5 W/m2 SCT
08:31 64.4 °F 59.1 °F 29.69 in WNW 16.1 mph 16.1 mph 83% 0.00 in 389.6 W/m2 SCT
08:36 64.4 °F 59.8 °F 29.70 in West 6.9 mph 6.9 mph 85% 0.00 in 383.5 W/m2 SCT
08:41 64.4 °F 59.1 °F 29.70 in West 8.1 mph 8.1 mph 83% 0.00 in 379.4 W/m2 SCT
08:46 64.4 °F 59.1 °F 29.70 in NW 8.1 mph 8.1 mph 83% 0.00 in 385.5 W/m2 SCT
08:51 64.4 °F 59.1 °F 29.70 in WNW 9.2 mph 9.2 mph 83% 0.00 in 388.5 W/m2 SCT
08:56 64.4 °F 59.1 °F 29.70 in West 10.4 mph 10.4 mph 83% 0.00 in 364.3 W/m2 SCT
09:01 64.4 °F 59.8 °F 29.70 in West 10.4 mph 10.4 mph 85% 0.00 in 351.2 W/m2 OVC
09:06 64.4 °F 59.1 °F 29.71 in WNW 3.5 mph 3.5 mph 83% 0.00 in 352.2 W/m2 OVC
09:11 64.4 °F 59.1 °F 29.71 in NNW 4.6 mph 4.6 mph 83% 0.00 in 360.3 W/m2 OVC
09:16 64.4 °F 58.4 °F 29.71 in NE 11.5 mph 11.5 mph 81% 0.00 in 392.6 W/m2 OVC
09:21 64.4 °F 59.1 °F 29.71 in West 11.5 mph 11.5 mph 83% 0.00 in 432.0 W/m2 OVC
09:26 62.6 °F 57.4 °F 29.72 in West 5.8 mph 5.8 mph 83% 0.00 in 367.3 W/m2 OVC
09:31 62.6 °F 57.4 °F 29.72 in West 5.8 mph 5.8 mph 83% 0.00 in 361.3 W/m2 OVC
09:36 62.6 °F 57.4 °F 29.71 in West 9.2 mph 9.2 mph 83% 0.00 in 389.6 W/m2 OVC
09:41 62.6 °F 57.4 °F 29.72 in WNW 9.2 mph 9.2 mph 83% 0.00 in 367.3 W/m2 OVC
09:46 62.6 °F 56.7 °F 29.72 in NW 6.9 mph 6.9 mph 81% 0.00 in 364.3 W/m2 OVC
09:47 62.6 °F 56.7 °F 29.72 in NW 6.9 mph 6.9 mph 81% 0.00 in 436.0 W/m2 OVC
09:52 62.6 °F 56.7 °F 29.72 in WNW 6.9 mph 6.9 mph 81% 0.00 in 511.8 W/m2 OVC
09:57 64.4 °F 58.4 °F 29.72 in WNW 5.8 mph 5.8 mph 81% 0.00 in 396.6 W/m2 OVC
10:02 64.4 °F 58.4 °F 29.72 in WNW 10.4 mph 10.4 mph 81% 0.00 in 393.6 W/m2 OVC
10:07 64.4 °F 58.4 °F 29.73 in North 10.4 mph 10.4 mph 81% 0.00 in 497.6 W/m2 OVC
10:12 64.4 °F 58.4 °F 29.73 in North 6.9 mph 6.9 mph 81% 0.00 in 731.9 W/m2 OVC
10:17 64.4 °F 58.4 °F 29.74 in WNW 6.9 mph 6.9 mph 81% 0.00 in 435.0 W/m2 OVC
10:22 64.4 °F 58.4 °F 29.74 in WNW 5.8 mph 5.8 mph 81% 0.00 in 389.6 W/m2 OVC
10:27 64.4 °F 58.4 °F 29.73 in West 5.8 mph 5.8 mph 81% 0.00 in 389.6 W/m2 OVC
10:32 64.4 °F 58.4 °F 29.74 in WSW 10.4 mph 10.4 mph 81% 0.00 in 389.6 W/m2 OVC
10:37 64.4 °F 58.4 °F 29.74 in West 10.4 mph 10.4 mph 81% 0.00 in 388.5 W/m2 OVC
10:38 64.4 °F 58.4 °F 29.74 in WSW 10.4 mph 10.4 mph 81% 0.00 in 388.5 W/m2 OVC
10:43 64.4 °F 58.4 °F 29.74 in West 6.9 mph 6.9 mph 81% 0.00 in 391.6 W/m2 OVC
10:48 64.4 °F 59.1 °F 29.74 in WNW 6.9 mph 6.9 mph 83% 0.00 in 390.6 W/m2 OVC
10:53 64.4 °F 59.1 °F 29.75 in NW 5.8 mph 5.8 mph 83% 0.00 in 385.5 W/m2 OVC
10:58 64.4 °F 59.1 °F 29.75 in NNW 5.8 mph 5.8 mph 83% 0.00 in 374.4 W/m2 OVC
11:03 64.4 °F 58.4 °F 29.75 in NNW 3.5 mph 3.5 mph 81% 0.00 in 374.4 W/m2 BKN
11:08 64.4 °F 58.4 °F 29.76 in West 3.5 mph 3.5 mph 81% 0.00 in 372.4 W/m2 BKN
11:13 64.4 °F 59.1 °F 29.76 in West 3.5 mph 3.5 mph 83% 0.00 in 510.8 W/m2 BKN
11:18 64.4 °F 58.4 °F 29.76 in West 8.1 mph 8.1 mph 81% 0.00 in 407.7 W/m2 BKN
11:23 64.4 °F 58.4 °F 29.76 in West 8.1 mph 8.1 mph 81% 0.00 in 561.2 W/m2 BKN
11:28 64.4 °F 57.7 °F 29.76 in West 8.1 mph 8.1 mph 79% 0.00 in 835.0 W/m2 BKN
Juneau County Weather
Compliments of Weather Underground - 4.75 mb